Atwell, West Virginia
Current Conditions -  °F | °C
As of 7:35 AM on Sunday 21 Dec 2014 (Local Time) from KJFZ Reporting Station
Clear Clear  
Wind Chill: 32°   Ceiling: Unl
Heat Index: 32°   Visibility: 10mi
Dew Point: 28°   Wind: 0mph
Humidity: 85%   Direction: NA
Pressure: 30.2"   Gusts: NA
Location:  37.3433°N, 81.7826°W
Report Text: KJFZ 211235Z AUTO 00000KT 10SM CLR 00/M02 A3020 RMK AO2 T10011023
Loading
Personal Weather Stations






























Interactive Weather Map New forecast layout! Learn more

10-Day Weather Forecast

Advertisements
Track Severe Weather on mobile